Portada
METAR-TAF:

METAR-TAF

Aeroports :

Aeroport de Svalbard-Longyear

Longyearbyen, Noruega

latitud: 78-15N, longitud: 015-28E, altitud: 2 m

Observació

L'informe es va fer fa 21 minuts, a les 19:50 UTC
Vent 6 kt del Est/Sud-Est
Temperatura 4°C
Humitat 75%
Pressió 991 hPa
Visibilitat 10 km o més
Núvols disperses a una alçada de 3500 ft
Cel ennuvolat a una alçada de 8000 ft

METAR: ENSB 151950Z 11006KT 9999 SCT035 BKN080 04/M00 Q0991 RMK WIND 1400FT VRB03KT

Hora: 22:11 (20:11 UTC)

Pronòstic

Pronòstic vàlid del 15 a les 18 UTC al 16 a les 18 UTC
Vent 10 kt del Est/Sud-Est
Visibilitat 10 km o més
Escasses núvols a una alçada de 1000 ft
Cel ennuvolat a una alçada de 2000 ft
Temporalment
l' 15 a les 18 UTC al 16 a les 18 UTC
Vent 8 kt del Sud

TAF: ENSB 1518/1618 12010KT 9999 FEW010 BKN020 TEMPO 1518/1618 19008KT

Observacions i pronòstics meteorològics de més de 4000 aeroports (METAR i TAF).

Les estacions disponibles són els punts grocs i vermells al mapa.

Posi el ratolí al punt desitjat per veure el nom de l'estació.

Feu clic per veure les observacions i els pronòstics meteorològics.

Per canviar el mapa: feu clic els botons verds amb una creu de color negre per apropar; al botó verd amb un guió per allunyar la imatge; o en les fletxes verdes per a mapes adjacents.


METAR-TAF: